الصفحة الرئيسية
METAR-TAF:

METAR-TAF

مطار :

مطار صلالة

صلالة, سلطنة عمان

دائرة عرض: 17-02N, خط طول: 054-05E, ارتفاع: 20 متر

مراقبة الطقس الحالي

تاريخ ووقت الإصدار 1ساعة و 6 دقيقة قبل الساعة 16:50UTC
ريح 3 عقدة من الجنوب/الجنوب الغربي
درجة الحرارة 28°درجة مئوية
الرطوبة 79%
ضغط 1013 hPa
الرؤية 10 كم أو أكثر
غيوم قليلة على ارتفاع 2000 قدم
غيوم متفرقة على ارتفاع 3500 قدم

METAR: OOSA 011650Z 20003KT 9999 FEW020 SCT035 28/24 Q1013 NOSIG

زمن: 21:56 (17:56 UTC)

توقعات

تاريخ ووقت الإصدار 16 دقيقة قبل الساعة 17:40UTC
التوقعات صالحة من01 الساعة 18 UTC إلى 03 الساعة 00 UTC
ريح 3 عقدةمن اتجاهات متغيرة
الرؤية 10 كم أو أكثر
غيوم قليلة على ارتفاع 2500 قدم
أصبح
من 02 الساعة 06 UTC إلى 02 الساعة 08 UTC
ريح 10 عقدة من الجنوب
أصبح
من 02 الساعة 16 UTC إلى 02 الساعة 18 UTC
ريح 3 عقدةمن اتجاهات متغيرة

TAF: OOSA 011740Z 0118/0300 VRB03KT 9999 FEW025 BECMG 0206/0208 19010KT BECMG 0216/0218 VRB03KT

أرصاد الطقس والتوقعات من أكثر من 4000 مطار (تقارير الطقس للمطار METAR والتنبؤ بالطقس بالمطارTAF).

المحطات المتاحة هي النقط الصفراء والحمراء على الخريطة.

حرك المؤشر فوق النقطة لمعرفة اسم المحطة.

ثم انقر لمعرفة أرصاد وتوقعات الطقس.

لتغيير الخارطة: اضغط على الأزرار الخضراء مع رمز الصليب الأسود للتكبير. على الزر الأخضر مع شرطة للتصغير، أو على الأسهم الخضراء للخرائط المجاورة.


METAR-TAF: